createdAt,value
2024-04-07T00:09:43.686Z,69
2024-04-07T00:19:43.842Z,70
2024-04-07T00:29:44.025Z,71
2024-04-07T00:39:44.210Z,73
2024-04-07T00:49:44.431Z,74
2024-04-07T00:59:44.619Z,68
2024-04-07T01:09:44.835Z,59
2024-04-07T01:19:45.039Z,54
2024-04-07T01:29:45.238Z,51
2024-04-07T01:39:45.425Z,52
2024-04-07T01:49:45.612Z,51
2024-04-07T01:59:45.786Z,50
2024-04-07T02:09:45.968Z,50
2024-04-07T02:29:46.364Z,54
2024-04-07T02:39:46.617Z,56
2024-04-07T02:49:46.767Z,59
2024-04-07T02:59:46.962Z,61
2024-04-07T03:09:47.138Z,62
2024-04-07T03:19:47.345Z,65
2024-04-07T03:29:47.576Z,67
2024-04-07T03:39:47.770Z,68
2024-04-07T03:49:47.943Z,68
2024-04-07T03:59:48.123Z,68
2024-04-07T04:09:48.327Z,68
2024-04-07T04:19:48.525Z,68
2024-04-07T04:29:48.741Z,68
2024-04-07T04:39:48.919Z,68
2024-04-07T04:49:49.122Z,69
2024-04-07T04:59:49.298Z,68
2024-04-07T05:09:49.505Z,68
2024-04-07T05:19:49.699Z,68
2024-04-07T05:29:49.938Z,69
2024-04-07T05:39:50.106Z,68
2024-04-07T05:49:50.329Z,68
2024-04-07T05:59:50.549Z,66
2024-04-07T06:09:50.673Z,65
2024-04-07T06:19:50.930Z,64
2024-04-07T06:29:51.094Z,64
2024-04-07T06:39:51.266Z,64
2024-04-07T06:49:51.465Z,63
2024-04-07T06:59:51.661Z,62
2024-04-07T07:09:51.849Z,61
2024-04-07T07:19:52.088Z,61
2024-04-07T07:29:52.242Z,61
2024-04-07T07:39:52.459Z,60
2024-04-07T07:49:52.669Z,61
2024-04-07T07:59:55.617Z,61
2024-04-07T08:09:55.457Z,61
2024-04-07T08:19:53.225Z,61
2024-04-07T08:29:53.423Z,61
2024-04-07T08:39:53.643Z,60
2024-04-07T08:59:54.037Z,59
2024-04-07T09:19:54.395Z,59
2024-04-07T09:29:54.652Z,59
2024-04-07T09:39:54.787Z,59
2024-04-07T09:49:55.005Z,58
2024-04-07T09:59:55.184Z,58
2024-04-07T10:09:55.366Z,59
2024-04-07T10:19:55.623Z,59
2024-04-07T10:29:55.788Z,58
2024-04-07T10:39:55.958Z,56
2024-04-07T10:49:56.152Z,56
2024-04-07T10:59:56.341Z,55
2024-04-07T11:09:56.542Z,55
2024-04-07T11:19:56.745Z,52
2024-04-07T11:29:56.951Z,51
2024-04-07T11:39:57.383Z,48
2024-04-07T11:49:57.320Z,48
2024-04-07T12:09:57.757Z,49
2024-04-07T12:19:57.899Z,50
2024-04-07T12:29:58.104Z,47
2024-04-07T12:39:58.288Z,46
2024-04-07T12:49:58.479Z,47
2024-04-07T12:59:58.678Z,46
2024-04-07T13:09:58.895Z,46
2024-04-07T13:19:59.055Z,46
2024-04-07T13:29:59.247Z,46
2024-04-07T13:39:59.465Z,44
2024-04-07T13:49:59.634Z,45
2024-04-07T13:59:59.822Z,44
2024-04-07T14:10:00.023Z,45
2024-04-07T14:20:00.226Z,46
2024-04-07T14:30:00.436Z,47
2024-04-07T14:40:00.627Z,46
2024-04-07T14:50:00.805Z,47
2024-04-07T15:00:01.003Z,48
2024-04-07T15:10:01.186Z,48
2024-04-07T15:20:01.389Z,48
2024-04-07T15:30:01.598Z,48
2024-04-07T15:40:01.837Z,49
2024-04-07T15:50:01.979Z,49
2024-04-07T16:10:02.365Z,50
2024-04-07T16:20:02.579Z,51
2024-04-07T16:30:02.795Z,51
2024-04-07T16:40:02.939Z,51
2024-04-07T16:50:03.152Z,52
2024-04-07T17:00:03.328Z,52
2024-04-07T17:10:03.552Z,51
2024-04-07T17:20:03.728Z,52
2024-04-07T17:30:03.934Z,51
2024-04-07T17:40:04.194Z,52
2024-04-07T17:50:04.345Z,53
2024-04-07T18:00:04.521Z,53
2024-04-07T18:10:04.706Z,54
2024-04-07T18:20:04.897Z,54
2024-04-07T18:30:05.089Z,54
2024-04-07T18:40:05.274Z,55
2024-04-07T18:50:05.479Z,55
2024-04-07T19:00:05.683Z,56
2024-04-07T19:10:05.919Z,56
2024-04-07T19:20:06.073Z,59
2024-04-07T19:30:06.256Z,61
2024-04-07T19:40:06.445Z,66
2024-04-07T19:50:06.680Z,67
2024-04-07T20:00:06.840Z,67
2024-04-07T20:10:07.085Z,71
2024-04-07T20:20:07.231Z,74
2024-04-07T20:30:07.439Z,75
2024-04-07T20:40:07.676Z,74
2024-04-07T20:50:07.833Z,82
2024-04-07T21:00:08.030Z,82
2024-04-07T21:10:08.218Z,84
2024-04-07T21:20:08.442Z,84
2024-04-07T21:30:08.614Z,83
2024-04-07T21:40:08.807Z,83
2024-04-07T21:50:09.013Z,86
2024-04-07T22:00:09.231Z,87
2024-04-07T22:10:09.410Z,86
2024-04-07T22:20:09.607Z,88
2024-04-07T22:30:09.804Z,89
2024-04-07T22:40:10.031Z,89
2024-04-07T23:00:10.394Z,87
2024-04-07T23:10:10.593Z,86
2024-04-07T23:30:11.012Z,89
2024-04-07T23:40:12.946Z,89
2024-04-07T23:50:11.476Z,89
